sensor_id;sensor_type;location;lat;lon;timestamp;P1;durP1;ratioP1;P2;durP2;ratioP2
11135;SDS011;5622;50.840;4.948;2023-03-30T00:00:44;7.67;;;2.70;;
11135;SDS011;5622;50.840;4.948;2023-03-30T00:03:12;5.30;;;2.60;;
11135;SDS011;5622;50.840;4.948;2023-03-30T00:05:44;6.03;;;2.50;;
11135;SDS011;5622;50.840;4.948;2023-03-30T00:08:12;7.77;;;2.80;;
11135;SDS011;5622;50.840;4.948;2023-03-30T00:10:42;8.03;;;2.93;;
11135;SDS011;5622;50.840;4.948;2023-03-30T00:13:10;5.73;;;2.63;;
11135;SDS011;5622;50.840;4.948;2023-03-30T00:15:38;6.37;;;2.97;;
11135;SDS011;5622;50.840;4.948;2023-03-30T00:18:06;6.23;;;2.93;;
11135;SDS011;5622;50.840;4.948;2023-03-30T00:20:34;5.63;;;3.20;;
11135;SDS011;5622;50.840;4.948;2023-03-30T00:23:03;4.73;;;2.70;;
11135;SDS011;5622;50.840;4.948;2023-03-30T00:25:32;4.70;;;2.70;;
11135;SDS011;5622;50.840;4.948;2023-03-30T00:27:59;7.90;;;3.00;;
11135;SDS011;5622;50.840;4.948;2023-03-30T00:30:27;5.07;;;2.40;;
11135;SDS011;5622;50.840;4.948;2023-03-30T00:32:54;6.63;;;2.80;;
11135;SDS011;5622;50.840;4.948;2023-03-30T00:35:22;7.47;;;2.70;;
11135;SDS011;5622;50.840;4.948;2023-03-30T00:37:50;4.63;;;2.50;;
11135;SDS011;5622;50.840;4.948;2023-03-30T00:40:20;5.70;;;3.03;;
11135;SDS011;5622;50.840;4.948;2023-03-30T00:42:47;6.50;;;2.90;;
11135;SDS011;5622;50.840;4.948;2023-03-30T00:45:17;7.07;;;2.37;;
11135;SDS011;5622;50.840;4.948;2023-03-30T00:47:48;9.20;;;2.73;;
11135;SDS011;5622;50.840;4.948;2023-03-30T00:50:21;5.70;;;3.10;;
11135;SDS011;5622;50.840;4.948;2023-03-30T00:52:51;6.20;;;3.00;;
11135;SDS011;5622;50.840;4.948;2023-03-30T00:55:24;7.70;;;2.77;;
11135;SDS011;5622;50.840;4.948;2023-03-30T00:57:56;5.77;;;3.30;;
11135;SDS011;5622;50.840;4.948;2023-03-30T01:00:25;5.40;;;2.90;;
11135;SDS011;5622;50.840;4.948;2023-03-30T01:02:54;6.87;;;3.70;;
11135;SDS011;5622;50.840;4.948;2023-03-30T01:05:24;8.17;;;3.03;;
11135;SDS011;5622;50.840;4.948;2023-03-30T01:07:53;5.20;;;2.73;;
11135;SDS011;5622;50.840;4.948;2023-03-30T01:10:23;5.17;;;2.80;;
11135;SDS011;5622;50.840;4.948;2023-03-30T01:12:51;6.27;;;2.70;;
11135;SDS011;5622;50.840;4.948;2023-03-30T01:15:18;3.67;;;2.57;;
11135;SDS011;5622;50.840;4.948;2023-03-30T01:17:57;4.33;;;2.17;;
11135;SDS011;5622;50.840;4.948;2023-03-30T01:21:01;4.47;;;2.00;;
11135;SDS011;5622;50.840;4.948;2023-03-30T01:24:17;3.90;;;2.00;;
11135;SDS011;5622;50.840;4.948;2023-03-30T01:27:00;6.27;;;2.20;;
11135;SDS011;5622;50.840;4.948;2023-03-30T01:29:41;4.63;;;2.30;;
11135;SDS011;5622;50.840;4.948;2023-03-30T01:32:22;4.53;;;2.10;;
11135;SDS011;5622;50.840;4.948;2023-03-30T01:35:41;4.67;;;2.10;;
11135;SDS011;5622;50.840;4.948;2023-03-30T01:38:55;2.93;;;1.90;;
11135;SDS011;5622;50.840;4.948;2023-03-30T01:41:36;3.43;;;1.97;;
11135;SDS011;5622;50.840;4.948;2023-03-30T01:44:12;4.53;;;1.90;;
11135;SDS011;5622;50.840;4.948;2023-03-30T01:46:48;2.90;;;1.87;;
11135;SDS011;5622;50.840;4.948;2023-03-30T01:49:21;6.37;;;2.37;;
11135;SDS011;5622;50.840;4.948;2023-03-30T01:51:56;3.93;;;1.80;;
11135;SDS011;5622;50.840;4.948;2023-03-30T01:54:30;6.37;;;2.23;;
11135;SDS011;5622;50.840;4.948;2023-03-30T01:57:03;5.93;;;1.90;;
11135;SDS011;5622;50.840;4.948;2023-03-30T01:59:35;5.33;;;2.40;;
11135;SDS011;5622;50.840;4.948;2023-03-30T02:02:09;3.03;;;2.03;;
11135;SDS011;5622;50.840;4.948;2023-03-30T02:04:39;4.70;;;1.83;;
11135;SDS011;5622;50.840;4.948;2023-03-30T02:07:10;6.80;;;2.20;;
11135;SDS011;5622;50.840;4.948;2023-03-30T02:09:41;5.60;;;2.10;;
11135;SDS011;5622;50.840;4.948;2023-03-30T02:12:11;2.90;;;2.00;;
11135;SDS011;5622;50.840;4.948;2023-03-30T02:14:39;5.73;;;2.07;;
11135;SDS011;5622;50.840;4.948;2023-03-30T02:17:08;3.67;;;2.20;;
11135;SDS011;5622;50.840;4.948;2023-03-30T02:19:40;3.00;;;2.00;;
11135;SDS011;5622;50.840;4.948;2023-03-30T02:22:10;4.20;;;2.40;;
11135;SDS011;5622;50.840;4.948;2023-03-30T02:24:39;4.03;;;2.20;;
11135;SDS011;5622;50.840;4.948;2023-03-30T02:27:10;3.80;;;1.73;;
11135;SDS011;5622;50.840;4.948;2023-03-30T02:29:39;3.07;;;1.73;;
11135;SDS011;5622;50.840;4.948;2023-03-30T02:32:13;5.47;;;2.27;;
11135;SDS011;5622;50.840;4.948;2023-03-30T02:34:45;5.57;;;2.43;;
11135;SDS011;5622;50.840;4.948;2023-03-30T02:37:38;4.37;;;2.03;;
11135;SDS011;5622;50.840;4.948;2023-03-30T02:40:21;6.73;;;2.30;;
11135;SDS011;5622;50.840;4.948;2023-03-30T02:43:07;6.73;;;2.43;;
11135;SDS011;5622;50.840;4.948;2023-03-30T02:46:00;3.03;;;1.90;;
11135;SDS011;5622;50.840;4.948;2023-03-30T02:48:39;4.73;;;2.40;;
11135;SDS011;5622;50.840;4.948;2023-03-30T02:51:18;7.47;;;2.73;;
11135;SDS011;5622;50.840;4.948;2023-03-30T02:53:59;6.87;;;2.63;;
11135;SDS011;5622;50.840;4.948;2023-03-30T02:56:36;5.63;;;2.60;;
11135;SDS011;5622;50.840;4.948;2023-03-30T02:59:09;5.83;;;2.77;;
11135;SDS011;5622;50.840;4.948;2023-03-30T03:01:41;5.87;;;2.80;;
11135;SDS011;5622;50.840;4.948;2023-03-30T03:04:12;6.30;;;2.57;;
11135;SDS011;5622;50.840;4.948;2023-03-30T03:06:40;5.00;;;2.57;;
11135;SDS011;5622;50.840;4.948;2023-03-30T03:09:09;7.13;;;3.07;;
11135;SDS011;5622;50.840;4.948;2023-03-30T03:11:38;5.00;;;2.43;;
11135;SDS011;5622;50.840;4.948;2023-03-30T03:14:05;9.37;;;2.77;;
11135;SDS011;5622;50.840;4.948;2023-03-30T03:16:33;7.43;;;2.50;;
11135;SDS011;5622;50.840;4.948;2023-03-30T03:19:01;5.30;;;2.20;;
11135;SDS011;5622;50.840;4.948;2023-03-30T03:21:28;5.27;;;2.60;;
11135;SDS011;5622;50.840;4.948;2023-03-30T03:23:56;4.30;;;2.20;;
11135;SDS011;5622;50.840;4.948;2023-03-30T03:26:23;4.17;;;2.33;;
11135;SDS011;5622;50.840;4.948;2023-03-30T03:28:52;2.73;;;2.13;;
11135;SDS011;5622;50.840;4.948;2023-03-30T03:31:20;3.40;;;2.20;;
11135;SDS011;5622;50.840;4.948;2023-03-30T03:33:51;5.67;;;2.20;;
11135;SDS011;5622;50.840;4.948;2023-03-30T03:36:18;5.97;;;2.70;;
11135;SDS011;5622;50.840;4.948;2023-03-30T03:38:49;8.17;;;2.10;;
11135;SDS011;5622;50.840;4.948;2023-03-30T03:41:18;4.43;;;2.20;;
11135;SDS011;5622;50.840;4.948;2023-03-30T03:43:45;8.40;;;2.17;;
11135;SDS011;5622;50.840;4.948;2023-03-30T03:46:14;4.90;;;2.40;;
11135;SDS011;5622;50.840;4.948;2023-03-30T03:48:42;5.37;;;2.03;;
11135;SDS011;5622;50.840;4.948;2023-03-30T03:51:10;4.93;;;2.13;;
11135;SDS011;5622;50.840;4.948;2023-03-30T03:53:40;4.20;;;1.50;;
11135;SDS011;5622;50.840;4.948;2023-03-30T03:56:07;5.87;;;2.03;;
11135;SDS011;5622;50.840;4.948;2023-03-30T03:58:35;5.73;;;1.57;;
11135;SDS011;5622;50.840;4.948;2023-03-30T04:01:03;4.57;;;1.90;;
11135;SDS011;5622;50.840;4.948;2023-03-30T04:03:32;2.60;;;1.70;;
11135;SDS011;5622;50.840;4.948;2023-03-30T04:06:03;3.53;;;1.87;;
11135;SDS011;5622;50.840;4.948;2023-03-30T04:11:03;5.67;;;1.67;;
11135;SDS011;5622;50.840;4.948;2023-03-30T04:13:32;4.30;;;1.80;;
11135;SDS011;5622;50.840;4.948;2023-03-30T04:16:02;3.97;;;1.67;;
11135;SDS011;5622;50.840;4.948;2023-03-30T04:18:30;4.53;;;2.00;;
11135;SDS011;5622;50.840;4.948;2023-03-30T04:21:02;4.33;;;1.70;;
11135;SDS011;5622;50.840;4.948;2023-03-30T04:23:31;5.07;;;2.30;;
11135;SDS011;5622;50.840;4.948;2023-03-30T04:25:59;2.80;;;1.73;;
11135;SDS011;5622;50.840;4.948;2023-03-30T04:28:27;3.40;;;2.00;;
11135;SDS011;5622;50.840;4.948;2023-03-30T04:30:56;3.60;;;2.10;;
11135;SDS011;5622;50.840;4.948;2023-03-30T04:33:24;5.30;;;2.03;;
11135;SDS011;5622;50.840;4.948;2023-03-30T04:35:53;3.23;;;2.10;;
11135;SDS011;5622;50.840;4.948;2023-03-30T04:38:21;4.33;;;2.10;;
11135;SDS011;5622;50.840;4.948;2023-03-30T04:40:49;5.00;;;1.97;;
11135;SDS011;5622;50.840;4.948;2023-03-30T04:43:17;6.03;;;2.00;;
11135;SDS011;5622;50.840;4.948;2023-03-30T04:45:48;6.00;;;2.20;;
11135;SDS011;5622;50.840;4.948;2023-03-30T04:48:16;2.37;;;1.60;;
11135;SDS011;5622;50.840;4.948;2023-03-30T04:50:44;4.87;;;2.40;;
11135;SDS011;5622;50.840;4.948;2023-03-30T04:53:15;7.07;;;2.10;;
11135;SDS011;5622;50.840;4.948;2023-03-30T04:55:46;4.03;;;2.17;;
11135;SDS011;5622;50.840;4.948;2023-03-30T04:58:16;4.33;;;1.90;;
11135;SDS011;5622;50.840;4.948;2023-03-30T05:00:47;6.13;;;2.53;;
11135;SDS011;5622;50.840;4.948;2023-03-30T05:03:14;3.43;;;1.63;;
11135;SDS011;5622;50.840;4.948;2023-03-30T05:05:42;3.63;;;1.90;;
11135;SDS011;5622;50.840;4.948;2023-03-30T05:08:09;3.83;;;2.10;;
11135;SDS011;5622;50.840;4.948;2023-03-30T05:10:39;5.87;;;2.57;;
11135;SDS011;5622;50.840;4.948;2023-03-30T05:13:07;6.23;;;2.13;;
11135;SDS011;5622;50.840;4.948;2023-03-30T05:15:34;3.83;;;1.93;;
11135;SDS011;5622;50.840;4.948;2023-03-30T05:18:02;6.03;;;1.97;;
11135;SDS011;5622;50.840;4.948;2023-03-30T05:20:29;6.00;;;2.00;;
11135;SDS011;5622;50.840;4.948;2023-03-30T05:22:56;3.33;;;1.87;;
11135;SDS011;5622;50.840;4.948;2023-03-30T05:25:24;2.87;;;1.93;;
11135;SDS011;5622;50.840;4.948;2023-03-30T05:27:53;4.73;;;2.10;;
11135;SDS011;5622;50.840;4.948;2023-03-30T05:30:23;7.60;;;1.93;;
11135;SDS011;5622;50.840;4.948;2023-03-30T05:32:50;4.10;;;2.00;;
